Time;durP1;ratioP1;P1;durP2;ratioP2;P2;SDS_P1;SDS_P2;PMS_P1;PMS_P2;Temp;Humidity;BMP_temperature;BMP_pressure;BME280_temperature;BME280_humidity;BME280_pressure;Samples;Min_cycle;Max_cycle;Signal;HPM_P1;HPM_P2
2022/11/02 00:01:14;;;;;;;7.90;2.90;;;;;;;;;;5034500;28;20190;-77
2022/11/02 00:03:40;;;;;;;7.90;2.93;;;;;;;;;;5031563;28;20293;-78
2022/11/02 00:06:06;;;;;;;8.50;2.67;;;;;;;;;;5028378;28;20193;-78
2022/11/02 00:08:32;;;;;;;5.63;2.30;;;;;;;;;;5030723;28;20175;-77
2022/11/02 00:10:59;;;;;;;9.43;3.20;;;;;;;;;;5007677;28;20187;-78
2022/11/02 00:13:25;;;;;;;6.93;2.60;;;;;;;;;;5037253;28;20678;-77
2022/11/02 00:15:51;;;;;;;8.07;2.37;;;;;;;;;;5027201;28;20179;-77
2022/11/02 00:18:17;;;;;;;5.13;2.27;;;;;;;;;;5043554;28;20182;-78
2022/11/02 00:20:43;;;;;;;7.10;3.37;;;;;;;;;;5032831;28;20183;-77
2022/11/02 00:23:11;;;;;;;5.60;2.60;;;;;;;;;;5037444;28;20594;-78
2022/11/02 00:25:41;;;;;;;5.63;2.27;;;;;;;;;;5030689;28;20187;-78
2022/11/02 00:28:08;;;;;;;7.20;2.43;;;;;;;;;;5029310;28;20520;-78
2022/11/02 00:30:34;;;;;;;5.67;2.37;;;;;;;;;;5030495;28;20175;-78
2022/11/02 00:33:00;;;;;;;6.60;2.27;;;;;;;;;;5028385;28;20213;-78
2022/11/02 00:35:28;;;;;;;6.10;2.67;;;;;;;;;;5031303;28;20179;-78
2022/11/02 00:37:54;;;;;;;6.70;2.53;;;;;;;;;;5007460;28;20481;-78
2022/11/02 00:40:20;;;;;;;6.70;2.23;;;;;;;;;;5030410;28;20189;-78
2022/11/02 00:42:47;;;;;;;6.83;2.67;;;;;;;;;;5032997;28;20217;-77
2022/11/02 00:45:13;;;;;;;7.07;2.27;;;;;;;;;;5036801;28;20182;-78
2022/11/02 00:47:39;;;;;;;10.47;4.07;;;;;;;;;;5027899;28;20202;-78
2022/11/02 00:50:06;;;;;;;12.20;4.23;;;;;;;;;;5035427;28;20573;-78
2022/11/02 00:52:35;;;;;;;10.07;3.10;;;;;;;;;;5043620;28;20185;-78
2022/11/02 00:55:01;;;;;;;8.70;2.60;;;;;;;;;;5036140;28;20735;-78
2022/11/02 00:57:29;;;;;;;8.67;3.13;;;;;;;;;;5041370;28;20183;-77
2022/11/02 00:59:55;;;;;;;8.03;3.87;;;;;;;;;;5034643;28;20712;-78
2022/11/02 01:02:21;;;;;;;13.90;4.70;;;;;;;;;;5033665;28;20206;-78
2022/11/02 01:04:48;;;;;;;10.27;3.70;;;;;;;;;;5034139;28;20202;-78
2022/11/02 01:07:14;;;;;;;13.03;4.23;;;;;;;;;;5043881;28;21660;-77
2022/11/02 01:09:40;;;;;;;6.47;2.80;;;;;;;;;;5043484;28;20212;-77
2022/11/02 01:12:06;;;;;;;5.33;2.47;;;;;;;;;;5039172;28;20185;-77
2022/11/02 01:14:32;;;;;;;9.97;3.80;;;;;;;;;;5020494;28;20202;-78
2022/11/02 01:16:58;;;;;;;8.83;2.93;;;;;;;;;;5033931;28;20186;-78
2022/11/02 01:19:25;;;;;;;7.17;2.63;;;;;;;;;;5038395;28;20186;-78
2022/11/02 01:21:51;;;;;;;6.40;2.60;;;;;;;;;;5028643;28;20230;-78
2022/11/02 01:24:17;;;;;;;10.07;2.60;;;;;;;;;;5029689;28;20209;-77
2022/11/02 01:26:43;;;;;;;7.93;2.40;;;;;;;;;;5042324;28;20306;-77
2022/11/02 01:29:11;;;;;;;7.37;2.73;;;;;;;;;;5032412;28;20182;-77
2022/11/02 01:31:37;;;;;;;6.53;2.87;;;;;;;;;;5031395;28;20260;-78
2022/11/02 01:34:03;;;;;;;8.40;2.70;;;;;;;;;;5036923;28;20222;-78
2022/11/02 01:36:29;;;;;;;6.30;2.40;;;;;;;;;;5033403;28;20701;-78
2022/11/02 01:38:55;;;;;;;5.87;2.80;;;;;;;;;;5036364;28;20178;-78
2022/11/02 01:41:22;;;;;;;5.47;2.10;;;;;;;;;;5035027;28;20622;-78
2022/11/02 01:43:49;;;;;;;9.00;3.10;;;;;;;;;;5031708;28;20210;-78
2022/11/02 01:46:18;;;;;;;9.17;2.83;;;;;;;;;;5024160;28;20265;-78
2022/11/02 01:48:49;;;;;;;6.03;2.50;;;;;;;;;;5026593;28;20266;-78
2022/11/02 01:51:21;;;;;;;5.93;2.30;;;;;;;;;;5039290;28;20658;-78
2022/11/02 01:53:49;;;;;;;6.80;2.47;;;;;;;;;;5033530;28;20234;-78
2022/11/02 01:56:17;;;;;;;4.73;2.23;;;;;;;;;;5038655;28;21258;-78
2022/11/02 01:58:46;;;;;;;6.63;2.40;;;;;;;;;;5034892;28;20190;-78
2022/11/02 02:01:12;;;;;;;8.03;2.67;;;;;;;;;;5021770;28;21002;-77
2022/11/02 02:03:39;;;;;;;6.47;2.40;;;;;;;;;;5030115;28;20233;-77
2022/11/02 02:06:13;;;;;;;9.70;2.70;;;;;;;;;;5027795;28;20489;-77
2022/11/02 02:08:41;;;;;;;8.97;2.87;;;;;;;;;;5014546;28;20206;-77
2022/11/02 02:11:26;;;;;;;6.83;2.77;;;;;;;;;;5025667;28;20216;-77
2022/11/02 02:13:54;;;;;;;8.73;3.00;;;;;;;;;;5008291;28;20206;-78
2022/11/02 02:16:46;;;;;;;8.07;2.33;;;;;;;;;;5008905;28;20261;-78
2022/11/02 02:19:22;;;;;;;6.63;2.23;;;;;;;;;;5040975;28;20182;-78
2022/11/02 02:22:01;;;;;;;8.07;2.17;;;;;;;;;;5028028;28;20273;-77
2022/11/02 02:24:43;;;;;;;7.13;2.60;;;;;;;;;;5025188;28;20253;-77
2022/11/02 02:27:16;;;;;;;5.67;2.20;;;;;;;;;;5033054;28;20214;-78
2022/11/02 02:29:51;;;;;;;7.10;2.80;;;;;;;;;;5027535;28;20189;-78
2022/11/02 02:32:17;;;;;;;5.83;2.40;;;;;;;;;;5022412;28;20193;-78
2022/11/02 02:34:50;;;;;;;8.13;2.63;;;;;;;;;;5026243;28;20233;-78
2022/11/02 02:37:19;;;;;;;7.80;2.70;;;;;;;;;;5035446;28;20555;-77
2022/11/02 02:40:00;;;;;;;8.77;2.60;;;;;;;;;;5029306;28;20277;-77
2022/11/02 02:42:31;;;;;;;7.27;2.63;;;;;;;;;;5020577;28;22216;-78
2022/11/02 02:45:08;;;;;;;6.53;2.40;;;;;;;;;;5031311;28;20199;-78
2022/11/02 02:47:35;;;;;;;8.70;2.50;;;;;;;;;;5026262;28;20185;-77
2022/11/02 02:50:13;;;;;;;7.13;2.43;;;;;;;;;;5020337;28;20186;-78
2022/11/02 02:52:40;;;;;;;4.63;2.20;;;;;;;;;;5027865;28;20193;-77
2022/11/02 02:55:07;;;;;;;7.40;2.50;;;;;;;;;;5037450;28;20556;-77
2022/11/02 02:57:34;;;;;;;4.27;1.97;;;;;;;;;;5031848;28;20175;-77
2022/11/02 03:00:01;;;;;;;6.90;2.17;;;;;;;;;;5026609;28;20197;-78
2022/11/02 03:02:36;;;;;;;5.67;2.40;;;;;;;;;;4998501;28;20198;-78
2022/11/02 03:05:21;;;;;;;7.67;2.93;;;;;;;;;;5026861;28;20186;-78
2022/11/02 03:07:47;;;;;;;7.33;2.30;;;;;;;;;;5027082;28;20194;-78
2022/11/02 03:10:17;;;;;;;5.00;2.40;;;;;;;;;;5033469;28;20201;-78
2022/11/02 03:12:55;;;;;;;9.37;2.40;;;;;;;;;;5015530;28;20190;-78
2022/11/02 03:15:30;;;;;;;10.60;2.60;;;;;;;;;;5026794;28;20181;-78
2022/11/02 03:17:59;;;;;;;6.50;2.10;;;;;;;;;;5042787;28;20216;-78
2022/11/02 03:20:28;;;;;;;5.00;2.37;;;;;;;;;;5015938;28;20210;-78
2022/11/02 03:23:09;;;;;;;15.53;4.63;;;;;;;;;;5027748;28;20215;-78
2022/11/02 03:25:37;;;;;;;7.67;2.40;;;;;;;;;;5022158;28;20206;-78
2022/11/02 03:28:21;;;;;;;7.50;2.40;;;;;;;;;;5022523;28;20856;-78
2022/11/02 03:30:58;;;;;;;6.37;2.40;;;;;;;;;;5034749;28;20177;-78
2022/11/02 03:33:24;;;;;;;6.17;1.90;;;;;;;;;;5025909;28;20293;-76
2022/11/02 03:35:53;;;;;;;6.17;2.13;;;;;;;;;;5028652;28;20189;-76
2022/11/02 03:38:43;;;;;;;12.17;2.60;;;;;;;;;;5027818;28;20555;-76
2022/11/02 03:41:10;;;;;;;5.83;2.10;;;;;;;;;;5004990;28;20206;-76
2022/11/02 03:43:38;;;;;;;8.37;2.60;;;;;;;;;;5028452;28;20711;-76
2022/11/02 03:46:06;;;;;;;8.73;2.00;;;;;;;;;;5023849;28;20196;-76
2022/11/02 03:48:35;;;;;;;7.77;2.20;;;;;;;;;;5030065;28;20237;-76
2022/11/02 03:51:05;;;;;;;9.40;2.10;;;;;;;;;;5008937;28;20217;-75
2022/11/02 03:53:52;;;;;;;5.93;2.17;;;;;;;;;;5028483;28;20202;-76
2022/11/02 03:56:21;;;;;;;6.47;1.87;;;;;;;;;;5006144;28;20198;-75
2022/11/02 03:58:47;;;;;;;7.33;2.00;;;;;;;;;;5025705;28;20182;-76
2022/11/02 04:01:14;;;;;;;6.67;1.97;;;;;;;;;;5028321;28;20190;-76
2022/11/02 04:03:43;;;;;;;6.57;2.40;;;;;;;;;;5034304;28;20213;-76
2022/11/02 04:06:11;;;;;;;6.23;2.07;;;;;;;;;;5037340;28;20182;-76
2022/11/02 04:08:45;;;;;;;6.53;2.33;;;;;;;;;;5034750;28;20205;-76
2022/11/02 04:16:47;;;;;;;5.47;2.27;;;;;;;;;;5018415;28;20217;-76
2022/11/02 04:19:28;;;;;;;9.27;2.13;;;;;;;;;;5028419;28;20831;-76
2022/11/02 04:27:40;;;;;;;7.13;2.27;;;;;;;;;;5027574;28;20185;-75
2022/11/02 04:30:08;;;;;;;6.37;2.30;;;;;;;;;;5019654;28;20191;-76
2022/11/02 04:35:26;;;;;;;7.87;2.20;;;;;;;;;;5022951;28;20187;-75
2022/11/02 04:40:39;;;;;;;7.53;2.07;;;;;;;;;;5026506;28;20654;-76
2022/11/02 04:43:05;;;;;;;5.50;2.03;;;;;;;;;;5026181;28;20725;-76
2022/11/02 04:45:33;;;;;;;5.30;2.03;;;;;;;;;;5034310;28;20186;-76
2022/11/02 04:48:00;;;;;;;8.27;2.30;;;;;;;;;;5022287;28;20684;-77
2022/11/02 04:50:27;;;;;;;5.57;1.97;;;;;;;;;;5036619;28;20193;-76
2022/11/02 04:52:58;;;;;;;7.70;2.47;;;;;;;;;;5028870;28;20266;-76
2022/11/02 04:55:25;;;;;;;7.40;2.23;;;;;;;;;;5021289;28;20232;-76
2022/11/02 04:57:53;;;;;;;8.07;2.37;;;;;;;;;;5030580;28;20829;-76
2022/11/02 05:00:20;;;;;;;8.87;2.27;;;;;;;;;;5035233;28;20180;-76
2022/11/02 05:02:47;;;;;;;10.13;2.20;;;;;;;;;;5023348;28;20717;-76
2022/11/02 05:05:14;;;;;;;7.23;2.20;;;;;;;;;;5011358;28;20194;-76
2022/11/02 05:07:41;;;;;;;12.60;2.40;;;;;;;;;;5034079;28;20193;-76
2022/11/02 05:10:07;;;;;;;8.27;2.60;;;;;;;;;;5001405;28;20431;-76
2022/11/02 05:12:34;;;;;;;7.67;2.40;;;;;;;;;;5026007;28;20227;-76
2022/11/02 05:15:03;;;;;;;6.70;2.43;;;;;;;;;;5025065;28;20658;-76
2022/11/02 05:17:30;;;;;;;9.07;2.43;;;;;;;;;;5026826;28;20263;-76
2022/11/02 05:19:56;;;;;;;9.07;2.33;;;;;;;;;;5028012;28;20235;-76
2022/11/02 05:22:23;;;;;;;8.47;2.43;;;;;;;;;;5033059;28;20225;-76
2022/11/02 05:24:49;;;;;;;6.60;2.37;;;;;;;;;;5030409;28;20198;-76
2022/11/02 05:27:15;;;;;;;8.50;2.10;;;;;;;;;;5034553;28;20210;-76
2022/11/02 05:29:42;;;;;;;6.70;2.53;;;;;;;;;;5031604;28;20176;-76
2022/11/02 05:32:09;;;;;;;8.30;2.50;;;;;;;;;;5027864;28;20182;-76
2022/11/02 05:34:35;;;;;;;9.83;2.47;;;;;;;;;;5031444;28;20195;-76
2022/11/02 05:37:02;;;;;;;6.07;2.53;;;;;;;;;;5019416;28;20217;-76
2022/11/02 05:39:28;;;;;;;8.87;2.60;;;;;;;;;;5012226;28;20189;-76
2022/11/02 05:41:55;;;;;;;5.70;2.40;;;;;;;;;;5029040;28;20187;-76
2022/11/02 05:44:21;;;;;;;9.93;2.53;;;;;;;;;;5052181;28;20896;-76
2022/11/02 05:46:47;;;;;;;8.83;2.40;;;;;;;;;;5011108;28;20189;-76
2022/11/02 05:49:13;;;;;;;8.40;2.60;;;;;;;;;;5025733;28;20187;-77
2022/11/02 05:51:39;;;;;;;8.13;2.50;;;;;;;;;;5025825;28;20175;-78
2022/11/02 05:54:06;;;;;;;8.17;2.43;;;;;;;;;;5036233;28;20538;-76
2022/11/02 05:56:32;;;;;;;8.77;2.73;;;;;;;;;;5035427;28;20186;-77
2022/11/02 05:58:58;;;;;;;6.35;2.60;;;;;;;;;;5030317;28;20420;-77
2022/11/02 06:01:24;;;;;;;7.97;2.50;;;;;;;;;;5025308;28;20177;-76
2022/11/02 06:03:51;;;;;;;6.23;2.47;;;;;;;;;;5020773;28;20222;-76
2022/11/02 06:06:17;;;;;;;5.50;2.53;;;;;;;;;;5039390;28;20185;-76
2022/11/02 06:08:43;;;;;;;8.70;2.70;;;;;;;;;;5028865;28;20938;-77
2022/11/02 06:11:10;;;;;;;6.93;2.30;;;;;;;;;;5030009;28;20190;-78
2022/11/02 06:13:37;;;;;;;7.50;2.90;;;;;;;;;;5030088;28;20230;-77
2022/11/02 06:16:04;;;;;;;9.63;2.83;;;;;;;;;;5031665;28;20257;-81
2022/11/02 06:18:31;;;;;;;8.67;2.90;;;;;;;;;;5029843;28;20178;-80
2022/11/02 06:20:58;;;;;;;5.33;2.27;;;;;;;;;;5035052;28;20222;-80
2022/11/02 06:23:24;;;;;;;6.30;2.60;;;;;;;;;;5017136;28;20217;-78
2022/11/02 06:25:51;;;;;;;6.40;2.50;;;;;;;;;;5038917;28;20177;-78
2022/11/02 06:28:18;;;;;;;6.73;2.43;;;;;;;;;;5042597;28;20264;-78
2022/11/02 06:30:44;;;;;;;6.47;2.47;;;;;;;;;;5032250;28;20693;-79
2022/11/02 06:33:11;;;;;;;5.53;2.60;;;;;;;;;;5031701;28;20228;-78
2022/11/02 06:35:39;;;;;;;5.87;2.50;;;;;;;;;;5034814;28;20193;-81
2022/11/02 06:38:05;;;;;;;6.77;2.40;;;;;;;;;;5031549;28;20300;-78
2022/11/02 06:40:31;;;;;;;9.27;2.70;;;;;;;;;;5027873;28;20663;-80
2022/11/02 06:42:58;;;;;;;6.47;2.40;;;;;;;;;;4999978;28;20639;-78
2022/11/02 06:45:25;;;;;;;7.20;2.50;;;;;;;;;;5031909;28;20198;-78
2022/11/02 06:47:51;;;;;;;7.07;2.20;;;;;;;;;;5039527;28;20182;-78
2022/11/02 06:50:17;;;;;;;7.00;2.40;;;;;;;;;;5037249;28;20657;-78
2022/11/02 06:52:47;;;;;;;6.50;2.30;;;;;;;;;;5015536;28;20528;-78
2022/11/02 06:55:14;;;;;;;7.40;2.30;;;;;;;;;;5042445;28;20201;-79
2022/11/02 06:57:40;;;;;;;4.53;2.10;;;;;;;;;;5034723;28;20187;-78
2022/11/02 07:00:09;;;;;;;10.20;2.70;;;;;;;;;;5024708;28;20213;-78
2022/11/02 07:02:36;;;;;;;4.50;2.40;;;;;;;;;;5026079;28;20218;-78
2022/11/02 07:05:02;;;;;;;7.07;2.60;;;;;;;;;;5034807;28;20228;-78
2022/11/02 07:07:28;;;;;;;7.67;2.63;;;;;;;;;;5032467;28;20178;-78
2022/11/02 07:09:54;;;;;;;8.83;2.40;;;;;;;;;;5039814;28;20182;-78
2022/11/02 07:12:20;;;;;;;7.47;2.60;;;;;;;;;;5029355;28;20727;-78
2022/11/02 07:14:46;;;;;;;7.83;3.00;;;;;;;;;;5031645;28;20753;-78
2022/11/02 07:17:12;;;;;;;7.23;2.50;;;;;;;;;;5041744;28;20673;-78
2022/11/02 07:19:38;;;;;;;4.90;2.40;;;;;;;;;;5030524;28;20223;-78
2022/11/02 07:22:05;;;;;;;8.80;2.67;;;;;;;;;;5032204;28;20217;-77
2022/11/02 07:24:31;;;;;;;7.87;2.87;;;;;;;;;;5024507;28;20539;-78
2022/11/02 07:26:57;;;;;;;7.83;2.50;;;;;;;;;;5037764;28;20197;-78
2022/11/02 07:29:23;;;;;;;11.73;2.90;;;;;;;;;;5023861;28;20181;-78
2022/11/02 07:31:49;;;;;;;6.73;2.67;;;;;;;;;;5037538;28;20167;-78
2022/11/02 07:34:16;;;;;;;5.83;2.27;;;;;;;;;;5046443;28;20233;-78
2022/11/02 07:36:42;;;;;;;5.97;2.43;;;;;;;;;;5032650;28;20566;-78
2022/11/02 07:39:08;;;;;;;5.07;2.70;;;;;;;;;;5044767;28;20178;-78
2022/11/02 07:41:35;;;;;;;7.30;2.93;;;;;;;;;;5031811;28;20303;-78
2022/11/02 07:44:01;;;;;;;7.73;2.47;;;;;;;;;;5036271;28;20210;-78
2022/11/02 07:46:35;;;;;;;6.67;2.40;;;;;;;;;;5044823;28;20162;-78
2022/11/02 07:49:01;;;;;;;7.90;2.77;;;;;;;;;;5034731;28;20253;-78
2022/11/02 07:51:27;;;;;;;7.53;2.60;;;;;;;;;;5030635;28;20274;-78
2022/11/02 07:53:53;;;;;;;10.37;2.80;;;;;;;;;;5030787;28;20210;-78
2022/11/02 07:56:20;;;;;;;6.57;2.60;;;;;;;;;;5044821;28;20189;-78
2022/11/02 07:58:46;;;;;;;8.50;2.90;;;;;;;;;;5038026;28;20178;-78
2022/11/02 08:01:12;;;;;;;6.70;2.40;;;;;;;;;;5046445;28;21945;-78
2022/11/02 08:03:38;;;;;;;6.57;2.33;;;;;;;;;;5042995;28;20296;-78
2022/11/02 08:06:05;;;;;;;7.50;2.47;;;;;;;;;;5016297;28;20192;-78
2022/11/02 08:08:31;;;;;;;5.70;2.60;;;;;;;;;;5031825;28;20614;-78
2022/11/02 08:11:02;;;;;;;7.93;2.97;;;;;;;;;;5031035;28;20182;-78
2022/11/02 08:13:28;;;;;;;9.73;2.53;;;;;;;;;;5028195;28;20203;-78
2022/11/02 08:15:55;;;;;;;7.07;2.60;;;;;;;;;;5031159;28;20191;-78
2022/11/02 08:18:25;;;;;;;8.33;2.67;;;;;;;;;;5029150;28;20263;-78
2022/11/02 08:20:51;;;;;;;8.23;2.60;;;;;;;;;;5005168;28;20194;-78
2022/11/02 08:23:19;;;;;;;5.50;2.40;;;;;;;;;;5029894;28;20236;-79
2022/11/02 08:25:47;;;;;;;7.47;2.70;;;;;;;;;;5030083;28;20182;-78
2022/11/02 08:28:14;;;;;;;7.27;2.47;;;;;;;;;;5032388;28;20182;-78
2022/11/02 08:30:41;;;;;;;6.40;2.90;;;;;;;;;;5031567;28;20213;-78
2022/11/02 08:33:10;;;;;;;8.30;2.87;;;;;;;;;;5035315;28;20210;-78
2022/11/02 08:35:37;;;;;;;7.77;2.77;;;;;;;;;;5031775;28;20258;-78
2022/11/02 08:38:03;;;;;;;6.30;2.77;;;;;;;;;;5029407;28;20183;-78
2022/11/02 08:40:30;;;;;;;6.60;2.53;;;;;;;;;;5020647;28;20868;-78
2022/11/02 08:42:57;;;;;;;7.73;2.67;;;;;;;;;;5026566;28;20221;-78
2022/11/02 08:45:23;;;;;;;7.50;2.67;;;;;;;;;;5032796;28;20181;-79
2022/11/02 08:47:49;;;;;;;9.37;3.00;;;;;;;;;;5022408;28;20689;-78
2022/11/02 08:50:16;;;;;;;5.67;2.70;;;;;;;;;;5023168;28;20222;-77
2022/11/02 08:52:42;;;;;;;10.13;2.87;;;;;;;;;;5027586;28;20182;-80
2022/11/02 08:55:08;;;;;;;10.90;2.77;;;;;;;;;;5028573;28;20631;-76
2022/11/02 08:57:44;;;;;;;7.03;2.97;;;;;;;;;;5028853;28;20178;-82
2022/11/02 09:00:10;;;;;;;10.10;2.90;;;;;;;;;;5030044;28;20186;-77
2022/11/02 09:02:37;;;;;;;9.80;3.10;;;;;;;;;;5031194;28;20273;-84
2022/11/02 09:05:03;;;;;;;6.20;2.80;;;;;;;;;;5037297;28;20191;-84
2022/11/02 09:07:30;;;;;;;9.97;2.97;;;;;;;;;;5020712;28;20185;-83
2022/11/02 09:09:56;;;;;;;9.63;2.90;;;;;;;;;;5028107;28;20186;-80
2022/11/02 09:12:22;;;;;;;7.80;2.60;;;;;;;;;;5025968;28;20187;-79
2022/11/02 09:14:48;;;;;;;7.37;2.60;;;;;;;;;;5037364;28;20194;-80
2022/11/02 09:17:14;;;;;;;8.87;2.60;;;;;;;;;;5030550;28;20187;-80
2022/11/02 09:19:40;;;;;;;6.87;2.47;;;;;;;;;;5015676;28;20206;-79
2022/11/02 09:22:07;;;;;;;5.80;2.23;;;;;;;;;;5029918;28;20206;-80
2022/11/02 09:24:33;;;;;;;8.17;2.43;;;;;;;;;;5025560;28;20205;-79
2022/11/02 09:26:59;;;;;;;7.80;2.40;;;;;;;;;;5027032;28;20185;-80
2022/11/02 09:29:25;;;;;;;9.83;2.70;;;;;;;;;;5027251;28;20269;-80
2022/11/02 09:31:52;;;;;;;10.00;2.63;;;;;;;;;;5016209;28;20212;-80
2022/11/02 09:34:18;;;;;;;7.30;2.50;;;;;;;;;;5032387;28;20211;-80
2022/11/02 09:36:44;;;;;;;8.60;2.63;;;;;;;;;;5031038;28;20187;-80
2022/11/02 09:39:10;;;;;;;10.97;2.50;;;;;;;;;;5030896;28;20691;-80
2022/11/02 09:41:39;;;;;;;11.13;2.80;;;;;;;;;;5042427;28;20570;-80
2022/11/02 09:44:08;;;;;;;8.07;2.47;;;;;;;;;;5031628;28;20294;-80
2022/11/02 09:46:37;;;;;;;9.00;2.43;;;;;;;;;;5038021;28;20174;-80
2022/11/02 09:49:05;;;;;;;8.73;2.40;;;;;;;;;;5029797;28;20205;-80
2022/11/02 09:51:51;;;;;;;12.07;2.97;;;;;;;;;;5031192;28;20654;-80
2022/11/02 09:54:20;;;;;;;8.50;2.50;;;;;;;;;;5028555;28;20648;-80
2022/11/02 09:56:47;;;;;;;7.90;2.53;;;;;;;;;;5030215;28;20301;-80
2022/11/02 09:59:17;;;;;;;12.67;2.80;;;;;;;;;;5038835;28;20190;-80
2022/11/02 10:01:56;;;;;;;8.90;2.50;;;;;;;;;;5029772;28;20228;-80
2022/11/02 10:04:39;;;;;;;8.90;2.10;;;;;;;;;;5038224;28;20194;-80
2022/11/02 10:07:14;;;;;;;9.17;2.50;;;;;;;;;;5030397;28;20206;-80
2022/11/02 10:09:47;;;;;;;10.60;2.43;;;;;;;;;;5020151;28;20270;-80
2022/11/02 10:12:21;;;;;;;10.13;2.60;;;;;;;;;;5028696;28;20285;-80
2022/11/02 10:15:08;;;;;;;9.53;2.00;;;;;;;;;;5005624;28;20290;-80
2022/11/02 10:17:36;;;;;;;6.73;1.97;;;;;;;;;;4993047;28;20248;-80
2022/11/02 10:20:10;;;;;;;9.57;2.67;;;;;;;;;;5024946;28;20278;-80
2022/11/02 10:22:38;;;;;;;9.23;2.30;;;;;;;;;;5031088;28;20202;-80
2022/11/02 10:25:06;;;;;;;9.43;2.20;;;;;;;;;;5027232;28;20569;-81
2022/11/02 10:27:36;;;;;;;8.17;2.30;;;;;;;;;;5035554;28;20179;-80
2022/11/02 10:30:17;;;;;;;10.27;2.27;;;;;;;;;;5015006;28;20177;-80
2022/11/02 10:32:44;;;;;;;11.23;2.30;;;;;;;;;;5044207;28;20285;-80
2022/11/02 10:35:19;;;;;;;5.23;2.00;;;;;;;;;;5023318;28;20187;-80
2022/11/02 10:37:52;;;;;;;9.37;2.17;;;;;;;;;;5027314;28;20182;-79
2022/11/02 10:40:31;;;;;;;6.70;1.90;;;;;;;;;;5039629;28;20175;-80
2022/11/02 10:43:09;;;;;;;8.67;2.20;;;;;;;;;;5028555;28;20367;-80
2022/11/02 10:45:38;;;;;;;5.13;1.90;;;;;;;;;;5035592;28;20184;-80
2022/11/02 10:48:27;;;;;;;7.07;2.10;;;;;;;;;;5031882;28;20221;-80
2022/11/02 10:51:02;;;;;;;7.67;2.23;;;;;;;;;;5056156;28;20204;-81
2022/11/02 10:53:33;;;;;;;9.07;2.30;;;;;;;;;;5008371;28;20224;-80
2022/11/02 10:56:15;;;;;;;12.23;2.47;;;;;;;;;;5032963;28;20189;-80
2022/11/02 10:58:49;;;;;;;8.70;2.33;;;;;;;;;;5017772;28;20183;-80
2022/11/02 11:01:15;;;;;;;9.90;2.47;;;;;;;;;;5028083;28;20186;-81
2022/11/02 11:03:53;;;;;;;9.27;2.40;;;;;;;;;;5035871;28;20627;-81
2022/11/02 11:06:20;;;;;;;9.30;2.40;;;;;;;;;;5033548;28;20191;-80
2022/11/02 11:08:48;;;;;;;9.00;2.27;;;;;;;;;;5028875;28;20196;-80
2022/11/02 11:11:15;;;;;;;10.60;2.40;;;;;;;;;;5020213;28;20680;-82
2022/11/02 11:13:46;;;;;;;7.07;2.13;;;;;;;;;;5029262;28;20309;-80
2022/11/02 11:16:12;;;;;;;7.10;2.20;;;;;;;;;;5035257;28;20186;-81
2022/11/02 11:18:39;;;;;;;7.67;2.20;;;;;;;;;;5007388;28;20186;-79
2022/11/02 11:21:06;;;;;;;7.83;2.13;;;;;;;;;;5015699;28;21565;-76
2022/11/02 11:23:32;;;;;;;8.97;2.30;;;;;;;;;;5020769;28;20389;-76
2022/11/02 11:26:08;;;;;;;6.77;2.50;;;;;;;;;;5004599;28;20293;-80
2022/11/02 11:28:54;;;;;;;9.53;2.57;;;;;;;;;;5017513;28;20193;-80
2022/11/02 11:31:20;;;;;;;7.47;2.40;;;;;;;;;;5026557;28;20179;-81
2022/11/02 11:33:56;;;;;;;4.13;1.90;;;;;;;;;;5030631;28;20274;-75
2022/11/02 11:36:25;;;;;;;6.60;2.30;;;;;;;;;;5020622;28;20191;-77
2022/11/02 11:38:52;;;;;;;7.73;2.00;;;;;;;;;;5021236;28;20274;-77
2022/11/02 11:41:18;;;;;;;8.40;2.80;;;;;;;;;;5024593;28;20179;-78
2022/11/02 11:43:45;;;;;;;7.63;2.77;;;;;;;;;;5027856;28;20268;-77
2022/11/02 11:46:12;;;;;;;8.40;2.10;;;;;;;;;;5024861;28;20186;-78
2022/11/02 11:48:50;;;;;;;7.93;2.20;;;;;;;;;;5029534;28;20277;-82
2022/11/02 11:51:41;;;;;;;7.50;1.90;;;;;;;;;;5047100;28;20212;-82
2022/11/02 11:54:20;;;;;;;6.27;2.07;;;;;;;;;;5030977;28;20640;-81
2022/11/02 11:56:47;;;;;;;7.07;1.90;;;;;;;;;;5040499;28;20218;-81
2022/11/02 11:59:20;;;;;;;7.63;1.90;;;;;;;;;;5029503;28;20186;-81
2022/11/02 12:01:46;;;;;;;6.43;1.90;;;;;;;;;;5016154;28;20182;-82
2022/11/02 12:04:12;;;;;;;6.83;1.60;;;;;;;;;;5025399;28;20226;-82
2022/11/02 12:06:47;;;;;;;6.30;1.70;;;;;;;;;;5029245;28;20664;-82
2022/11/02 12:09:13;;;;;;;6.83;1.67;;;;;;;;;;5045518;28;20225;-81
2022/11/02 12:11:52;;;;;;;5.47;1.90;;;;;;;;;;5015727;28;20261;-82
2022/11/02 12:14:38;;;;;;;6.57;1.60;;;;;;;;;;5039011;28;20221;-81
2022/11/02 12:17:20;;;;;;;5.10;1.60;;;;;;;;;;5014758;28;20203;-81
2022/11/02 12:19:46;;;;;;;5.53;1.73;;;;;;;;;;5011171;28;20305;-81
2022/11/02 12:22:18;;;;;;;4.40;1.90;;;;;;;;;;5026820;28;20186;-82
2022/11/02 12:24:47;;;;;;;6.57;2.03;;;;;;;;;;5031499;28;20809;-82
2022/11/02 12:27:26;;;;;;;4.00;1.50;;;;;;;;;;5030052;28;20190;-82
2022/11/02 12:30:03;;;;;;;5.57;1.60;;;;;;;;;;5028049;28;20653;-82
2022/11/02 12:32:29;;;;;;;6.77;1.83;;;;;;;;;;5028511;28;20293;-82
2022/11/02 12:34:57;;;;;;;4.33;1.63;;;;;;;;;;5027725;28;20206;-82
2022/11/02 12:37:26;;;;;;;6.17;1.60;;;;;;;;;;5033026;28;20506;-81
2022/11/02 12:40:10;;;;;;;5.13;1.80;;;;;;;;;;5028314;28;20657;-83
2022/11/02 12:42:40;;;;;;;6.40;1.90;;;;;;;;;;5017951;28;20273;-83
2022/11/02 12:45:21;;;;;;;5.40;1.87;;;;;;;;;;5010706;28;20178;-81
2022/11/02 12:47:58;;;;;;;5.07;1.50;;;;;;;;;;5020989;28;20178;-77
2022/11/02 12:50:30;;;;;;;5.23;1.93;;;;;;;;;;5033477;28;20267;-78
2022/11/02 12:53:02;;;;;;;8.53;2.20;;;;;;;;;;5031288;28;20781;-77
2022/11/02 12:55:31;;;;;;;6.30;1.80;;;;;;;;;;5012063;28;20302;-82
2022/11/02 12:58:00;;;;;;;6.53;1.83;;;;;;;;;;5026186;28;20175;-82
2022/11/02 13:00:28;;;;;;;4.27;1.30;;;;;;;;;;5031100;28;20668;-81
2022/11/02 13:02:57;;;;;;;4.97;1.57;;;;;;;;;;5025627;28;20220;-77
2022/11/02 13:05:26;;;;;;;4.17;1.77;;;;;;;;;;5027011;28;20188;-75
2022/11/02 13:08:06;;;;;;;5.53;1.80;;;;;;;;;;5023816;28;20183;-76
2022/11/02 13:10:42;;;;;;;5.90;2.13;;;;;;;;;;5021875;28;20188;-75
2022/11/02 13:13:12;;;;;;;4.40;1.70;;;;;;;;;;5027269;28;20208;-75
2022/11/02 13:15:38;;;;;;;3.67;1.50;;;;;;;;;;5039245;28;20278;-75
2022/11/02 13:18:09;;;;;;;4.73;1.80;;;;;;;;;;5030646;28;20193;-74
2022/11/02 13:20:39;;;;;;;4.27;1.50;;;;;;;;;;5019019;28;20183;-74
2022/11/02 13:23:07;;;;;;;5.63;1.80;;;;;;;;;;5026950;28;20239;-74
2022/11/02 13:25:35;;;;;;;5.63;1.70;;;;;;;;;;5022679;28;20458;-74
2022/11/02 13:28:09;;;;;;;4.80;1.60;;;;;;;;;;5028630;28;20175;-74
2022/11/02 13:30:35;;;;;;;5.00;1.53;;;;;;;;;;5016245;28;20178;-74
2022/11/02 13:33:14;;;;;;;4.70;1.53;;;;;;;;;;5022791;28;20584;-77
2022/11/02 13:35:40;;;;;;;3.40;1.33;;;;;;;;;;5024077;28;20266;-74
2022/11/02 13:38:13;;;;;;;3.47;1.43;;;;;;;;;;5025872;28;20243;-74
2022/11/02 13:40:42;;;;;;;6.37;1.70;;;;;;;;;;5025323;28;20199;-74
2022/11/02 13:43:26;;;;;;;4.07;1.50;;;;;;;;;;5024082;28;20242;-74
2022/11/02 13:46:12;;;;;;;7.00;1.60;;;;;;;;;;5020320;28;20291;-74
2022/11/02 13:48:47;;;;;;;4.63;1.50;;;;;;;;;;5027958;28;20261;-74
2022/11/02 13:51:20;;;;;;;7.30;1.83;;;;;;;;;;5026856;28;20240;-74
2022/11/02 13:53:52;;;;;;;3.90;1.57;;;;;;;;;;5025594;28;20229;-74
2022/11/02 13:56:23;;;;;;;3.10;1.50;;;;;;;;;;5023496;28;20673;-74
2022/11/02 13:58:55;;;;;;;4.70;1.50;;;;;;;;;;5029812;28;20177;-74
2022/11/02 14:01:22;;;;;;;5.00;1.80;;;;;;;;;;5029018;28;20748;-73
2022/11/02 14:03:50;;;;;;;6.73;1.70;;;;;;;;;;5029272;28;20222;-74
2022/11/02 14:06:17;;;;;;;4.17;1.70;;;;;;;;;;5022610;28;20271;-78
2022/11/02 14:08:55;;;;;;;6.53;1.80;;;;;;;;;;5028375;28;20182;-78
2022/11/02 14:11:21;;;;;;;5.43;1.60;;;;;;;;;;5031783;28;20170;-79
2022/11/02 14:13:53;;;;;;;9.30;2.10;;;;;;;;;;5035213;28;20606;-80
2022/11/02 14:16:38;;;;;;;18.07;2.10;;;;;;;;;;5028384;28;20677;-74
2022/11/02 14:19:17;;;;;;;7.23;1.93;;;;;;;;;;5025883;28;20193;-74
2022/11/02 14:21:58;;;;;;;5.40;1.70;;;;;;;;;;5034259;28;20197;-75
2022/11/02 14:24:33;;;;;;;5.17;1.80;;;;;;;;;;5031927;28;20233;-75
2022/11/02 14:27:00;;;;;;;5.30;1.40;;;;;;;;;;5035670;28;20270;-75
2022/11/02 14:29:38;;;;;;;8.63;1.93;;;;;;;;;;5027129;28;20179;-75
2022/11/02 14:32:10;;;;;;;6.70;1.57;;;;;;;;;;5020305;28;20190;-75
2022/11/02 14:34:56;;;;;;;6.97;1.70;;;;;;;;;;5025044;28;20194;-75
2022/11/02 14:37:41;;;;;;;6.10;1.70;;;;;;;;;;5005014;28;20194;-75
2022/11/02 14:40:23;;;;;;;4.73;1.70;;;;;;;;;;4987843;28;20245;-75
2022/11/02 14:43:01;;;;;;;5.77;1.50;;;;;;;;;;5018279;28;20214;-75
2022/11/02 14:45:32;;;;;;;4.33;1.43;;;;;;;;;;5024690;28;20174;-75
2022/11/02 14:47:59;;;;;;;3.90;1.20;;;;;;;;;;5019723;28;20184;-75
2022/11/02 14:50:26;;;;;;;5.67;1.90;;;;;;;;;;5030735;28;20252;-75
2022/11/02 14:53:05;;;;;;;3.63;1.47;;;;;;;;;;5025192;28;20211;-75
2022/11/02 14:55:32;;;;;;;6.27;1.40;;;;;;;;;;5010497;28;20239;-76
2022/11/02 14:58:01;;;;;;;5.67;1.60;;;;;;;;;;5007738;28;20617;-75
2022/11/02 15:00:38;;;;;;;6.33;1.63;;;;;;;;;;5028415;28;20256;-75
2022/11/02 15:03:14;;;;;;;2.97;1.27;;;;;;;;;;5027270;28;20205;-76
2022/11/02 15:05:42;;;;;;;7.33;2.00;;;;;;;;;;5029452;28;20182;-75
2022/11/02 15:08:16;;;;;;;5.57;1.50;;;;;;;;;;5026341;28;20661;-76
2022/11/02 15:10:43;;;;;;;5.00;1.60;;;;;;;;;;5025493;28;20188;-75
2022/11/02 15:13:18;;;;;;;7.60;2.00;;;;;;;;;;5025077;28;20206;-75
2022/11/02 15:15:45;;;;;;;4.03;1.80;;;;;;;;;;5027642;28;20265;-75